Hlavní strana
METAR-TAF:

METAR-TAF

Letiště :

Brescia, Itálie

Montichiari

zeměpisná šířka: 45-24-02N, zeměpisná délka: 010-18-59E, výška: 104 m

Aktuální stav počasí

Zpráva byla vytvořena před 59 minutami, v 03:50 UTC
Severozápadní vítr 2 kt
Teplota 4°C
Vlhkost vzduchu 93%
Tlak 1017 hPa
Viditelnost: 3000 m
Oblačno až skoro zataženo ve výšce 2000 ft
slabý déšť, kouřmo

METAR: LIPO 180350Z 32002KT 3000 -RA BR BKN020 04/03 Q1017

Čas: 05:49 (04:49 UTC)

Předpověď počasí

Zpráva byla vytvořena před 5 hodinami a 49 minutami, v 23:00 UTC
Předpověď platná od 18 v 00 UTC do 18 v 24 UTC
vítr z různých směrů 5 kt
Viditelnost: 4000 m
Polojasno ve výšce 2000 ft
Oblačno až skoro zataženo ve výšce 6000 ft
kouřmo
Dočasný
od 18 v 00 UTC do 18 v 18 UTC
Viditelnost: 2000 m
Oblačno až skoro zataženo ve výšce 1200 ft
Oblačno až skoro zataženo ve výšce 3000 ft
mrholení

TAF: LIPO 172300Z 1800/1824 VRB05KT 4000 BR SCT020 BKN060 TEMPO 1800/1818 2000 DZ BKN012 BKN030

Stav a předpovědi počasí z více než 4 000 letišť (zprávy METAR a TAF).

Červené a žluté tečky na mapě představují dostupné meteorologické stanice.

Když kurzor umístíte na tečku, zobrazí se název stanice.

Pak kliknutím zobrazíte stav a předpověď počasí.

Chcete-li změnit mapu, kliknutím na zelené tlačítko se znaménkem +mapu přiblížíte, kliknutím na zelené tlačítko se znaménkem – mapu oddálíte a kliknutím na zelené šipky přejdete na sousední mapy.


METAR-TAF: